createdAt,value
2022-09-21T00:01:24.856Z,81.57
2022-09-21T00:03:54.279Z,81.72
2022-09-21T00:06:23.219Z,81.83
2022-09-21T00:08:50.775Z,81.93
2022-09-21T00:11:22.800Z,82.02
2022-09-21T00:13:53.510Z,82.10
2022-09-21T00:16:20.757Z,82.06
2022-09-21T00:18:47.965Z,82.12
2022-09-21T00:21:15.872Z,82.24
2022-09-21T00:23:43.281Z,82.43
2022-09-21T00:26:16.128Z,82.59
2022-09-21T00:28:44.033Z,82.60
2022-09-21T00:31:14.230Z,82.51
2022-09-21T00:33:45.667Z,82.62
2022-09-21T00:36:18.823Z,82.69
2022-09-21T00:38:50.363Z,82.77
2022-09-21T00:41:16.879Z,82.84
2022-09-21T00:43:48.970Z,82.91
2022-09-21T00:46:27.935Z,83.00
2022-09-21T00:48:55.223Z,83.06
2022-09-21T00:51:22.071Z,83.16
2022-09-21T00:53:53.386Z,83.29
2022-09-21T00:56:43.638Z,83.57
2022-09-21T00:59:13.868Z,84.08
2022-09-21T01:01:42.962Z,84.00
2022-09-21T01:04:12.088Z,83.63
2022-09-21T01:06:40.913Z,82.90
2022-09-21T01:09:09.597Z,82.70
2022-09-21T01:11:48.319Z,82.68
2022-09-21T01:15:10.094Z,82.72
2022-09-21T01:18:02.646Z,82.74
2022-09-21T01:20:51.283Z,82.85
2022-09-21T01:24:07.623Z,82.92
2022-09-21T01:27:24.487Z,83.00
2022-09-21T01:30:17.364Z,83.09
2022-09-21T01:33:03.512Z,83.20
2022-09-21T01:35:47.744Z,83.32
2022-09-21T01:38:26.685Z,83.39
2022-09-21T01:41:00.959Z,83.50
2022-09-21T01:43:35.506Z,83.63
2022-09-21T01:46:04.916Z,83.70
2022-09-21T01:48:39.037Z,83.79
2022-09-21T01:51:10.786Z,83.93
2022-09-21T01:53:51.365Z,83.98
2022-09-21T01:56:42.042Z,84.01
2022-09-21T01:59:24.226Z,84.08
2022-09-21T02:02:05.537Z,84.14
2022-09-21T02:04:35.315Z,84.22
2022-09-21T02:07:03.204Z,84.28
2022-09-21T02:09:31.499Z,84.36
2022-09-21T02:12:01.463Z,84.43
2022-09-21T02:14:29.756Z,84.48
2022-09-21T02:17:07.853Z,84.59
2022-09-21T02:19:44.614Z,84.61
2022-09-21T02:22:22.626Z,84.61
2022-09-21T02:24:56.306Z,84.59
2022-09-21T02:27:51.839Z,84.58
2022-09-21T02:30:22.274Z,84.60
2022-09-21T02:33:23.935Z,84.58
2022-09-21T02:36:35.846Z,84.58
2022-09-21T02:39:10.808Z,84.68
2022-09-21T02:41:44.246Z,84.47
2022-09-21T02:44:33.859Z,84.39
2022-09-21T02:47:19.982Z,84.38
2022-09-21T02:49:57.140Z,84.38
2022-09-21T02:52:25.641Z,84.40
2022-09-21T02:54:53.856Z,84.40
2022-09-21T02:57:23.520Z,84.39
2022-09-21T02:59:52.550Z,84.37
2022-09-21T03:02:20.586Z,84.36
2022-09-21T03:04:50.112Z,84.38
2022-09-21T03:07:18.158Z,84.43
2022-09-21T03:09:46.871Z,84.45
2022-09-21T03:12:14.914Z,84.51
2022-09-21T03:14:42.965Z,84.56
2022-09-21T03:17:10.950Z,84.57
2022-09-21T03:19:38.871Z,84.56
2022-09-21T03:22:06.775Z,84.54
2022-09-21T03:24:46.893Z,84.58
2022-09-21T03:27:19.105Z,84.62
2022-09-21T03:29:47.982Z,84.68
2022-09-21T03:32:16.492Z,84.72
2022-09-21T03:34:44.708Z,84.75
2022-09-21T03:37:13.116Z,84.78
2022-09-21T03:39:47.669Z,84.77
2022-09-21T03:48:33.946Z,84.80
2022-09-21T03:51:37.018Z,84.79
2022-09-21T03:54:06.885Z,84.82
2022-09-21T03:56:37.767Z,84.84
2022-09-21T03:59:38.508Z,84.89
2022-09-21T04:02:10.755Z,84.89
2022-09-21T04:04:53.892Z,84.93
2022-09-21T04:08:16.561Z,84.96
2022-09-21T04:20:52.094Z,84.99
2022-09-21T04:21:43.342Z,85.06
2022-09-21T04:24:50.170Z,85.05
2022-09-21T04:27:19.260Z,84.97
2022-09-21T04:29:47.486Z,84.90
2022-09-21T04:32:15.783Z,84.89
2022-09-21T04:34:47.347Z,84.90
2022-09-21T04:37:17.803Z,84.92
2022-09-21T04:39:45.981Z,84.89
2022-09-21T04:49:35.161Z,84.95
2022-09-21T04:52:03.480Z,84.95
2022-09-21T04:54:31.733Z,84.94
2022-09-21T04:56:59.469Z,84.97
2022-09-21T04:59:27.345Z,84.99
2022-09-21T05:01:55.097Z,84.99
2022-09-21T05:04:22.925Z,84.95
2022-09-21T05:06:51.226Z,84.91
2022-09-21T05:09:37.698Z,84.87
2022-09-21T05:12:05.778Z,84.80
2022-09-21T05:14:33.696Z,84.76
2022-09-21T05:17:01.624Z,84.74
2022-09-21T05:19:29.462Z,84.72
2022-09-21T05:21:57.328Z,84.70
2022-09-21T05:24:25.156Z,84.67
2022-09-21T05:26:53.020Z,84.65
2022-09-21T05:29:21.325Z,84.59
2022-09-21T05:32:19.941Z,84.55
2022-09-21T05:35:15.097Z,84.52
2022-09-21T05:37:59.401Z,84.44
2022-09-21T05:40:39.777Z,84.40
2022-09-21T05:43:09.780Z,84.26
2022-09-21T05:45:47.715Z,84.09
2022-09-21T05:48:28.657Z,83.95
2022-09-21T05:51:43.203Z,83.84
2022-09-21T05:54:45.887Z,83.75
2022-09-21T05:57:41.616Z,83.57
2022-09-21T06:00:22.375Z,83.39
2022-09-21T06:03:32.748Z,83.28
2022-09-21T06:06:15.676Z,83.17
2022-09-21T06:08:45.765Z,83.13
2022-09-21T06:11:14.525Z,83.10
2022-09-21T06:16:50.535Z,82.95
2022-09-21T06:19:22.949Z,82.82
2022-09-21T06:21:53.191Z,82.79
2022-09-21T06:24:26.298Z,82.69
2022-09-21T06:26:57.942Z,82.68
2022-09-21T06:29:50.310Z,82.64
2022-09-21T06:32:26.143Z,82.51
2022-09-21T06:34:57.999Z,82.44
2022-09-21T06:37:28.312Z,82.46
2022-09-21T06:40:06.049Z,82.47
2022-09-21T06:42:41.881Z,82.49
2022-09-21T06:45:10.848Z,82.48
2022-09-21T06:58:49.366Z,82.52
2022-09-21T07:01:24.012Z,82.42
2022-09-21T07:04:09.575Z,82.47
2022-09-21T07:06:40.370Z,82.25
2022-09-21T07:12:42.492Z,81.74
2022-09-21T07:15:26.932Z,81.41
2022-09-21T07:19:10.267Z,81.21
2022-09-21T07:22:06.936Z,81.05
2022-09-21T07:33:50.812Z,80.22
2022-09-21T07:33:56.446Z,80.36
2022-09-21T07:48:14.824Z,78.94
2022-09-21T08:02:08.071Z,75.13
2022-09-21T08:05:04.348Z,75.39
2022-09-21T08:14:26.617Z,74.93
2022-09-21T08:17:30.467Z,74.26
2022-09-21T08:21:30.650Z,73.34
2022-09-21T08:24:51.655Z,73.21
2022-09-21T08:27:42.307Z,73.35
2022-09-21T08:34:46.869Z,72.30
2022-09-21T08:38:06.669Z,72.38
2022-09-21T08:45:18.097Z,71.18
2022-09-21T08:49:16.273Z,70.98
2022-09-21T08:57:04.023Z,70.69
2022-09-21T08:59:25.134Z,71.06
2022-09-21T09:00:04.259Z,70.26
2022-09-21T09:03:33.270Z,69.57
2022-09-21T09:09:49.653Z,69.49
2022-09-21T09:12:50.953Z,68.40
2022-09-21T09:16:03.299Z,68.35
2022-09-21T09:19:08.912Z,68.15
2022-09-21T09:22:15.243Z,67.69
2022-09-21T09:26:38.990Z,66.74
2022-09-21T09:29:52.597Z,66.07
2022-09-21T09:33:15.434Z,65.38
2022-09-21T09:41:04.476Z,63.01
2022-09-21T10:03:51.794Z,63.28
2022-09-21T10:07:43.061Z,63.46
2022-09-21T10:10:15.841Z,62.18
2022-09-21T10:23:33.227Z,58.43
2022-09-21T10:34:24.628Z,57.33
2022-09-21T10:38:23.886Z,56.51
2022-09-21T10:45:24.221Z,58.18
2022-09-21T10:48:25.503Z,58.40
2022-09-21T10:51:46.094Z,58.32
2022-09-21T10:57:42.007Z,58.56
2022-09-21T11:05:39.319Z,57.91
2022-09-21T11:08:16.283Z,57.55
2022-09-21T11:12:07.917Z,56.85
2022-09-21T11:15:02.652Z,57.07
2022-09-21T11:17:41.297Z,57.44
2022-09-21T11:20:15.174Z,57.75
2022-09-21T11:22:57.798Z,57.86
2022-09-21T11:25:37.393Z,58.36
2022-09-21T11:28:25.391Z,58.40
2022-09-21T11:31:26.317Z,58.85
2022-09-21T11:34:37.994Z,59.38
2022-09-21T11:38:18.895Z,60.23
2022-09-21T11:41:16.095Z,61.03
2022-09-21T11:45:08.315Z,61.43
2022-09-21T11:48:07.098Z,61.16
2022-09-21T11:50:40.821Z,59.19
2022-09-21T11:54:52.321Z,57.81
2022-09-21T11:57:43.977Z,55.29
2022-09-21T12:00:22.238Z,52.66
2022-09-21T12:03:35.629Z,51.96
2022-09-21T12:06:21.957Z,51.60
2022-09-21T12:09:18.290Z,52.93
2022-09-21T12:12:29.990Z,51.22
2022-09-21T12:15:11.085Z,49.75
2022-09-21T12:21:44.169Z,47.89
2022-09-21T12:24:22.491Z,45.91
2022-09-21T12:26:56.167Z,45.49
2022-09-21T12:29:47.564Z,45.29
2022-09-21T12:32:26.324Z,45.46
2022-09-21T12:34:59.320Z,45.61
2022-09-21T12:37:53.505Z,46.17
2022-09-21T12:40:34.107Z,48.12
2022-09-21T12:43:23.701Z,47.03
2022-09-21T12:46:02.806Z,48.23
2022-09-21T12:48:42.412Z,50.54
2022-09-21T12:51:25.238Z,54.10
2022-09-21T12:53:56.195Z,57.05
2022-09-21T12:56:50.383Z,57.62
2022-09-21T12:59:37.631Z,59.47
2022-09-21T13:02:15.568Z,61.06
2022-09-21T13:05:06.514Z,62.01
2022-09-21T13:08:13.068Z,63.17
2022-09-21T13:10:51.749Z,64.00
2022-09-21T13:13:53.225Z,63.90
2022-09-21T13:16:39.195Z,64.43
2022-09-21T13:19:13.339Z,64.25
2022-09-21T13:21:45.821Z,64.92
2022-09-21T13:24:26.793Z,64.90
2022-09-21T13:27:04.906Z,65.59
2022-09-21T13:30:03.346Z,65.70
2022-09-21T13:33:07.063Z,64.98
2022-09-21T13:36:02.588Z,66.11
2022-09-21T13:39:07.601Z,66.42
2022-09-21T13:41:59.400Z,66.52
2022-09-21T13:44:43.939Z,66.23
2022-09-21T13:47:46.204Z,66.70
2022-09-21T13:50:38.429Z,66.06
2022-09-21T13:53:35.321Z,66.47
2022-09-21T13:56:25.280Z,66.12
2022-09-21T13:58:57.422Z,66.32
2022-09-21T14:01:48.129Z,66.74
2022-09-21T14:04:39.640Z,66.43
2022-09-21T14:07:15.594Z,66.06
2022-09-21T14:09:59.224Z,66.08
2022-09-21T14:12:45.935Z,65.79
2022-09-21T14:15:22.375Z,65.78
2022-09-21T14:18:21.798Z,65.96
2022-09-21T14:21:43.597Z,65.42
2022-09-21T14:25:06.380Z,64.94
2022-09-21T14:30:08.432Z,64.58
2022-09-21T14:37:48.970Z,64.60
2022-09-21T14:40:51.341Z,64.20
2022-09-21T14:43:46.346Z,63.87
2022-09-21T14:47:27.437Z,62.93
2022-09-21T14:50:20.975Z,62.72
2022-09-21T14:54:05.104Z,62.09
2022-09-21T14:57:35.506Z,61.77
2022-09-21T15:00:30.668Z,61.06
2022-09-21T15:03:16.392Z,60.77
2022-09-21T15:05:56.977Z,59.65
2022-09-21T15:09:38.302Z,59.65
2022-09-21T15:12:20.129Z,59.61
2022-09-21T15:15:41.509Z,59.75
2022-09-21T15:18:23.789Z,59.96
2022-09-21T15:21:02.607Z,60.18
2022-09-21T15:23:47.714Z,60.49
2022-09-21T15:26:29.479Z,61.11
2022-09-21T15:29:11.517Z,61.57
2022-09-21T15:31:55.135Z,61.60
2022-09-21T15:34:24.951Z,61.67
2022-09-21T15:37:11.888Z,61.65
2022-09-21T15:39:41.456Z,62.07
2022-09-21T15:42:09.265Z,62.46
2022-09-21T15:44:39.633Z,62.38
2022-09-21T15:47:11.513Z,62.51
2022-09-21T15:49:39.913Z,62.88
2022-09-21T15:52:38.045Z,62.82
2022-09-21T15:55:16.149Z,62.91
2022-09-21T15:57:44.637Z,63.26
2022-09-21T16:00:16.014Z,63.82
2022-09-21T16:02:56.218Z,63.81
2022-09-21T16:05:25.709Z,63.92
2022-09-21T16:08:18.597Z,63.95
2022-09-21T16:10:46.780Z,64.07
2022-09-21T16:13:39.403Z,64.26
2022-09-21T16:16:16.846Z,64.28
2022-09-21T16:18:56.052Z,64.42
2022-09-21T16:21:34.892Z,64.53
2022-09-21T16:24:26.608Z,64.85
2022-09-21T16:27:03.053Z,65.06
2022-09-21T16:29:43.030Z,65.25
2022-09-21T16:32:26.561Z,65.33
2022-09-21T16:35:31.566Z,65.42
2022-09-21T16:37:59.454Z,65.63
2022-09-21T16:40:28.702Z,65.80
2022-09-21T16:42:56.924Z,65.84
2022-09-21T16:45:36.368Z,65.92
2022-09-21T16:48:08.348Z,66.12
2022-09-21T16:50:36.543Z,66.36
2022-09-21T16:53:04.965Z,66.56
2022-09-21T16:55:34.696Z,66.51
2022-09-21T16:58:05.580Z,66.54
2022-09-21T17:00:40.001Z,66.66
2022-09-21T17:03:07.993Z,66.70
2022-09-21T17:05:36.420Z,66.94
2022-09-21T17:08:09.418Z,67.29
2022-09-21T17:10:41.577Z,67.83
2022-09-21T17:13:10.362Z,68.14
2022-09-21T17:15:44.449Z,68.27
2022-09-21T17:18:15.649Z,68.37
2022-09-21T17:20:45.526Z,68.72
2022-09-21T17:23:14.391Z,68.92
2022-09-21T17:25:50.059Z,69.00
2022-09-21T17:28:30.852Z,69.01
2022-09-21T17:31:18.438Z,69.09
2022-09-21T17:33:48.019Z,69.14
2022-09-21T17:36:22.352Z,69.30
2022-09-21T17:38:50.488Z,69.40
2022-09-21T17:41:25.720Z,69.55
2022-09-21T17:44:14.212Z,69.81
2022-09-21T17:47:23.499Z,70.11
2022-09-21T17:49:52.298Z,70.32
2022-09-21T17:52:41.642Z,70.58
2022-09-21T17:55:13.790Z,70.73
2022-09-21T17:58:10.143Z,70.96
2022-09-21T18:01:02.542Z,71.17
2022-09-21T18:03:41.757Z,71.41
2022-09-21T18:06:11.443Z,71.42
2022-09-21T18:08:40.251Z,71.59
2022-09-21T18:12:01.966Z,71.74
2022-09-21T18:15:23.188Z,71.88
2022-09-21T18:18:43.300Z,71.65
2022-09-21T18:21:28.189Z,71.46
2022-09-21T18:24:21.844Z,71.56
2022-09-21T18:26:53.257Z,71.71
2022-09-21T18:29:46.241Z,72.04
2022-09-21T18:32:49.516Z,72.17
2022-09-21T18:36:10.202Z,72.31
2022-09-21T18:39:08.591Z,72.34
2022-09-21T18:42:05.041Z,72.37
2022-09-21T18:45:06.935Z,72.37
2022-09-21T18:47:55.339Z,72.35
2022-09-21T18:50:57.934Z,72.38
2022-09-21T18:53:50.426Z,72.67
2022-09-21T18:56:32.853Z,72.56
2022-09-21T18:59:18.902Z,72.75
2022-09-21T19:01:49.072Z,72.90
2022-09-21T19:04:33.062Z,73.12
2022-09-21T19:07:23.429Z,73.38
2022-09-21T19:10:12.330Z,73.27
2022-09-21T19:13:32.711Z,73.43
2022-09-21T19:16:20.554Z,73.30
2022-09-21T19:19:05.900Z,73.35
2022-09-21T19:21:55.351Z,73.54
2022-09-21T19:24:35.849Z,73.46
2022-09-21T19:27:41.295Z,73.55
2022-09-21T19:30:12.338Z,73.36
2022-09-21T19:33:03.136Z,73.18
2022-09-21T19:35:39.531Z,73.17
2022-09-21T19:38:10.334Z,73.17
2022-09-21T19:40:52.031Z,73.24
2022-09-21T19:44:10.203Z,73.29
2022-09-21T19:47:17.468Z,73.34
2022-09-21T19:50:12.033Z,73.28
2022-09-21T19:52:49.096Z,73.42
2022-09-21T19:55:41.229Z,73.53
2022-09-21T19:58:33.784Z,73.70
2022-09-21T20:01:19.335Z,73.68
2022-09-21T20:04:02.793Z,73.74
2022-09-21T20:07:14.690Z,73.67
2022-09-21T20:13:23.639Z,73.90
2022-09-21T20:16:25.235Z,73.78
2022-09-21T20:19:53.568Z,73.67
2022-09-21T20:22:39.498Z,73.53
2022-09-21T20:25:17.066Z,73.52
2022-09-21T20:27:55.789Z,73.46
2022-09-21T20:30:35.216Z,73.44
2022-09-21T20:33:33.562Z,73.34
2022-09-21T20:36:03.557Z,73.36
2022-09-21T20:38:34.425Z,73.35
2022-09-21T20:41:05.161Z,73.22
2022-09-21T20:43:33.873Z,73.20
2022-09-21T20:46:03.869Z,73.15
2022-09-21T20:48:34.090Z,73.11
2022-09-21T20:51:06.674Z,73.01
2022-09-21T20:53:35.409Z,73.00
2022-09-21T20:56:04.987Z,72.98
2022-09-21T20:58:36.305Z,72.96
2022-09-21T21:01:06.761Z,72.86
2022-09-21T21:03:35.157Z,72.79
2022-09-21T21:06:21.907Z,72.79
2022-09-21T21:08:52.408Z,72.80
2022-09-21T21:11:20.858Z,72.72
2022-09-21T21:14:33.101Z,72.75
2022-09-21T21:17:24.226Z,72.70
2022-09-21T21:19:53.559Z,72.73
2022-09-21T21:22:22.622Z,72.76
2022-09-21T21:24:52.150Z,72.81
2022-09-21T21:27:22.965Z,72.82
2022-09-21T21:29:53.746Z,72.86
2022-09-21T21:32:33.282Z,72.87
2022-09-21T21:35:05.086Z,72.85
2022-09-21T21:37:45.751Z,72.91
2022-09-21T21:40:18.944Z,72.96
2022-09-21T21:42:47.657Z,73.05
2022-09-21T21:45:15.912Z,72.99
2022-09-21T21:47:45.127Z,73.08
2022-09-21T21:50:13.497Z,73.16
2022-09-21T21:52:44.660Z,73.21
2022-09-21T21:55:13.216Z,73.28
2022-09-21T21:57:41.089Z,73.35
2022-09-21T22:00:12.833Z,73.42
2022-09-21T22:02:40.860Z,73.46
2022-09-21T22:05:11.650Z,73.56
2022-09-21T22:07:42.127Z,73.69
2022-09-21T22:10:15.230Z,73.78
2022-09-21T22:12:46.099Z,73.96
2022-09-21T22:15:17.419Z,74.11
2022-09-21T22:17:52.503Z,74.20
2022-09-21T22:20:20.883Z,74.31
2022-09-21T22:22:49.159Z,74.44
2022-09-21T22:25:17.121Z,74.52
2022-09-21T22:27:45.356Z,74.61
2022-09-21T22:30:16.272Z,74.74
2022-09-21T22:32:44.211Z,74.80
2022-09-21T22:35:12.741Z,74.95
2022-09-21T22:37:40.758Z,75.03
2022-09-21T22:40:09.854Z,75.07
2022-09-21T22:42:37.807Z,75.09
2022-09-21T22:45:06.499Z,75.08
2022-09-21T22:47:34.526Z,75.19
2022-09-21T22:50:02.438Z,75.35
2022-09-21T22:52:30.636Z,75.47
2022-09-21T22:54:58.523Z,75.61
2022-09-21T22:57:26.463Z,75.72
2022-09-21T22:59:54.581Z,75.83
2022-09-21T23:02:22.836Z,75.95
2022-09-21T23:04:50.837Z,76.06
2022-09-21T23:07:18.733Z,76.17
2022-09-21T23:09:46.792Z,76.26
2022-09-21T23:12:14.781Z,76.31
2022-09-21T23:14:42.793Z,76.26
2022-09-21T23:17:10.782Z,76.30
2022-09-21T23:19:38.807Z,76.31
2022-09-21T23:22:06.770Z,76.40
2022-09-21T23:24:35.102Z,76.55
2022-09-21T23:27:02.964Z,76.66
2022-09-21T23:29:30.904Z,76.72
2022-09-21T23:32:00.388Z,76.80
2022-09-21T23:34:28.344Z,76.88
2022-09-21T23:36:56.599Z,76.89
2022-09-21T23:39:33.768Z,76.88
2022-09-21T23:42:01.924Z,76.89
2022-09-21T23:44:29.800Z,76.91
2022-09-21T23:46:57.838Z,76.93
2022-09-21T23:49:25.904Z,76.98
2022-09-21T23:51:54.038Z,76.91
2022-09-21T23:54:22.197Z,76.79
2022-09-21T23:56:50.161Z,76.95
2022-09-21T23:59:18.297Z,77.14
